Weather observations for the past three days for
Placerville Airport
Imperial (Metric)
Date Time (pdt) Wind (mph) Vis. (mi.) Weather Sky Cond. Temperature (ºF) Relative Humidity Wind Chill (°F) Heat Index (°F) Pressure Precipitation (in)
Air Dwpt 6 hour altimeter (in) sea level (mb) 1 hr 3 hr 6 hr
Max. Min.
05 10:55 Calm 10.00 Fair CLR 69.8 41 35% 30.03 0.0
05 10:35 Calm 10.00 Fair CLR 68 44.6 43% 30.03 0.0
05 10:15 Calm 10.00 Fair CLR 66.2 42.8 43% 30.03 0.0
05 09:55 Calm 10.00 Fair CLR 66.2 41 40% 30.02 0.0
05 09:35 Calm 10.00 Fair CLR 62.6 41 45% 30.02 0.0
05 09:15 Calm 10.00 Fair CLR 64.4 41 43% 30.02 0.0
05 08:55 Calm 10.00 Fair CLR 62.6 41 45% 30.02 0.0
05 08:35 Calm 10.00 Fair CLR 60.8 42.8 52% 30.02 0.0
05 08:15 Calm 10.00 Fair CLR 60.8 41 48% 30.02 0.0
05 07:55 Calm 10.00 Fair CLR 59 41 51% 30.02 0.0
05 07:35 Calm 10.00 Fair CLR 59 39.2 48% 30.02 0.0
05 07:15 Calm 10.00 Fair CLR 59 41 51% 30.01 0.0
05 06:55 Calm 10.00 Fair CLR 59 41 51% 30.01 0.0
05 06:35 Calm 10.00 Fair CLR 59 41 51% 30 0.0
05 06:15 Calm 10.00 Fair CLR 59 41 51% 30 0.0
05 05:55 Calm 10.00 Fair CLR 59 41 51% 29.99 0.0
05 04:35 Calm 10.00 Fair CLR 55.4 41 59% 30 0.0
05 04:15 Calm 10.00 Fair CLR 55.4 41 59% 30 0.0
05 03:55 Calm 10.00 Fair CLR 59 39.2 48% 30 0.0
05 03:35 Calm 10.00 Fair CLR 59 39.2 48% 30 0.0
05 03:15 Calm 10.00 Fair CLR 59 39.2 48% 30.01 0.0
05 02:55 Calm 10.00 Fair CLR 59 39.2 48% 30.01 0.0
05 02:35 Calm 10.00 Fair CLR 57.2 39.2 51% 30.01 0.0
05 02:15 Calm 10.00 Fair CLR 59 39.2 48% 30.01 0.0
05 01:55 Calm 10.00 Fair CLR 57.2 39.2 51% 30.01 0.0
05 01:35 Calm 10.00 Fair CLR 59 39.2 48% 30.02 0.0
05 01:15 Calm 10.00 Fair CLR 57.2 39.2 51% 30.02 0.0
05 00:55 Calm 10.00 Fair CLR 57.2 41 55% 30.02 0.0
05 00:15 Calm 10.00 Fair CLR 55.4 39.2 55% 30.02 0.0
04 23:55 Calm 10.00 Fair CLR 55.4 41 59% 30.02 0.0
04 23:35 Calm 10.00 Fair CLR 57.2 41 55% 30.02 0.0
04 23:15 Calm 10.00 Fair CLR 57.2 41 55% 30.02 0.0
04 22:55 Calm 10.00 Fair CLR 57.2 41 55% 30.02 0.0
04 22:35 Calm 10.00 Fair CLR 57.2 41 55% 30.02 0.0
04 22:15 Calm 10.00 Fair CLR 59 41 51% 30.03 0.0
04 21:55 Calm 10.00 Fair CLR 59 39.2 48% 30.03 0.0
04 21:35 Calm 10.00 Fair CLR 59 39.2 48% 30.03 0.0
04 21:15 Calm 10.00 Fair CLR 59 41 51% 30.02 0.0
04 20:55 Calm 10.00 Fair CLR 59 39.2 48% 30.02 0.0
04 20:35 Calm 10.00 Fair CLR 59 41 51% 30.01 0.0
04 20:15 Calm 10.00 Fair CLR 60.8 41 48% 30 0.0
04 19:55 Calm 10.00 Fair CLR 62.6 41 45% 30 0.0
04 19:35 Calm 10.00 Fair CLR 62.6 41 45% 30 0.0
04 19:15 Calm 10.00 Fair CLR 64.4 41 43% 29.99 0.0
04 18:55 Calm 10.00 Fair CLR 64.4 39.2 40% 30 0.0
04 18:35 Calm 10.00 Fair CLR 66.2 39.2 37% 29.99 0.0
04 18:15 Calm 10.00 Fair CLR 66.2 39.2 37% 29.99 0.0
04 17:55 Calm 10.00 Fair CLR 66.2 39.2 37% 29.99 0.0
04 17:35 Calm 10.00 Fair CLR 68 39.2 35% 29.99 0.0
04 17:15 Calm 10.00 Fair CLR 68 39.2 35% 29.99 0.0
04 16:55 Calm 10.00 Fair CLR 68 39.2 35% 29.99 0.0
04 16:35 Calm 10.00 Fair CLR 66.2 39.2 37% 30 0.0
04 16:15 Calm 10.00 Fair CLR 66.2 41 40% 29.99 0.0
04 15:55 Calm 10.00 Fair CLR 66.2 44.6 46% 30 0.0
04 15:35 Calm 10.00 Fair CLR 68 46.4 46% 29.99 0.0
04 15:15 Calm 10.00 Fair CLR 68 48.2 49% 30 0.0
04 14:55 Calm 10.00 Fair CLR 68 48.2 49% 30 0.0
04 14:35 Calm 10.00 Fair CLR 66.2 50 56% 29.99 0.0
04 14:15 Calm 10.00 Fair CLR 66.2 50 56% 30 0.0
04 13:55 Calm 10.00 Fair CLR 64.4 50 60% 30 0.0
04 13:35 Calm 10.00 Fair CLR 62.6 50 64% 30 0.0
04 13:15 Calm 10.00 Fair CLR 64.4 53.6 68% 30 0.0
04 12:55 Calm 10.00 Fair CLR 64.4 53.6 68% 30 0.0 0.01
04 12:35 Calm 10.00 Fair CLR 62.6 51.8 68% 30.01 0.0 0.01
04 12:15 Calm 10.00 Fair CLR 62.6 51.8 68% 30.01 0.0 0.01
04 11:55 Calm 10.00 Fair CLR 59 51.8 77% 30.01 0.0
04 11:35 Calm 10.00 Fair CLR 57.2 53.6 88% 30.01 0.0
04 11:15 Calm 10.00 Fair CLR 55.4 55.4 100% 30.01 0.0
04 10:55 Calm 10.00 Fair CLR 55.4 55.4 100% 30.01 0.0
04 10:35 Calm 10.00 Fair CLR 53.6 53.6 100% 30 0.0
04 10:15 Calm 6.00 Fair CLR 53.6 53.6 100% 30 0.0
04 09:55 Calm 1.75 Sky Obscured VV007 53.6 53.6 100% 30 0.0 0.01
04 09:35 Calm 0.15 Sky Obscured VV000 53.6 53.6 100% 29.99 0.0
04 09:15 Calm 0.15 Sky Obscured VV000 53.6 53.6 100% 29.99 0.0
04 08:15 Calm 10.00 Fair CLR 53.6 53.6 100% 29.98 0.0
04 07:55 Calm 5.00 Fair CLR 53.6 53.6 100% 29.97 0.0
04 07:35 Calm 0.50 Sky Obscured VV005 53.6 53.6 100% 29.96 0.0
04 07:15 Calm 0.75 Sky Obscured VV005 53.6 53.6 100% 29.96 0.0
04 06:55 Calm 2.00 Fair CLR 53.6 53.6 100% 29.95 0.0
04 06:35 Calm 0.75 Sky Obscured VV005 53.6 53.6 100% 29.95 0.0
04 06:15 Calm 0.25 Sky Obscured VV002 53.6 53.6 100% 29.95 0.0
04 05:55 Calm 0.25 Sky Obscured VV002 53.6 53.6 100% 29.94 0.0 0.02
04 05:35 Calm 0.15 Sky Obscured VV000 55.4 55.4 100% 29.94 0.0 0.01
04 05:15 Calm 0.15 Sky Obscured VV000 55.4 55.4 100% 29.94 0.0 0.01
04 04:55 Calm 0.15 Sky Obscured VV000 55.4 55.4 100% 29.94 0.0
04 04:35 Calm 0.25 Sky Obscured VV002 55.4 55.4 100% 29.93 0.0
04 04:15 Calm 0.25 Sky Obscured VV002 55.4 55.4 100% 29.93 0.0
04 03:55 Calm 0.25 Sky Obscured VV002 55.4 55.4 100% 29.93 0.0
04 03:35 Calm 0.25 Sky Obscured VV002 55.4 55.4 100% 29.93 0.0
04 03:15 Calm 0.25 Sky Obscured VV002 55.4 55.4 100% 29.92 0.0
04 02:55 Calm 0.25 Sky Obscured VV002 55.4 55.4 100% 29.92 0.0
04 02:35 Calm 0.25 Sky Obscured VV002 57.2 57.2 100% 29.92 0.0
04 02:15 Calm 3.00 Fair CLR 57.2 57.2 100% 29.93 0.0
04 01:55 Calm 10.00 Fair CLR 57.2 55.4 94% 29.93 0.0
04 01:35 Calm 10.00 Fair CLR 57.2 55.4 94% 29.93 0.0
04 01:15 Calm 10.00 Fair CLR 57.2 55.4 94% 29.93 0.0
04 00:55 Calm 10.00 Fair CLR 57.2 55.4 94% 29.94 0.0
04 00:35 Calm 10.00 Fair CLR 57.2 55.4 94% 29.94 0.0
04 00:15 Calm 10.00 Fair CLR 57.2 55.4 94% 29.94 0.0
03 23:55 Calm 10.00 Fair CLR 57.2 55.4 94% 29.94 0.0
03 23:35 Calm 10.00 Fair CLR 57.2 55.4 94% 29.94 0.0
03 23:15 Calm 10.00 Fair CLR 57.2 53.6 88% 29.94 0.0
03 22:55 Calm 10.00 Fair CLR 57.2 55.4 94% 29.94 0.0
03 22:35 Calm 10.00 Fair CLR 57.2 53.6 88% 29.94 0.0
03 22:15 Calm 10.00 Fair CLR 59 53.6 82% 29.95 0.0
03 21:55 Calm 10.00 Fair CLR 59 53.6 82% 29.95 0.0
03 21:35 Calm 10.00 Fair CLR 59 53.6 82% 29.96 0.0
03 21:15 Calm 10.00 Fair CLR 59 53.6 82% 29.95 0.0
03 20:55 Calm 10.00 Fair CLR 59 53.6 82% 29.95 0.0
03 20:35 Calm 10.00 Fair CLR 59 53.6 82% 29.95 0.0
03 20:15 Calm 10.00 Fair CLR 59 53.6 82% 29.95 0.0
03 19:55 Calm 10.00 Fair CLR 59 55.4 88% 29.94 0.0
03 19:35 Calm 10.00 Fair CLR 60.8 55.4 83% 29.94 0.0
03 19:15 Calm 10.00 Fair CLR 60.8 53.6 77% 29.94 0.0
03 18:55 Calm 10.00 Fair CLR 62.6 53.6 73% 29.94 0.0
03 18:35 Calm 10.00 Fair CLR 62.6 53.6 73% 29.95 0.0
03 18:15 Calm 10.00 Fair CLR 62.6 53.6 73% 29.95 0.0
03 17:55 Calm 10.00 Fair CLR 64.4 51.8 64% 29.95 0.0
03 17:35 Calm 10.00 Fair CLR 64.4 51.8 64% 29.95 0.0
03 17:15 Calm 10.00 Fair CLR 64.4 51.8 64% 29.95 0.0
03 16:55 Calm 10.00 Fair CLR 66.2 51.8 60% 29.96 0.0
03 16:35 Calm 10.00 Fair CLR 66.2 51.8 60% 29.96 0.0
03 16:15 Calm 10.00 Fair CLR 66.2 50 56% 29.96 0.0
03 15:55 Calm 10.00 Fair CLR 68 50 53% 29.97 0.0
03 15:35 Calm 10.00 Fair CLR 68 50 53% 29.98 0.0
03 15:15 Calm 10.00 Fair CLR 68 48.2 49% 29.98 0.0
03 14:55 Calm 10.00 Fair CLR 68 46.4 46% 29.99 0.0
03 14:35 Calm 10.00 Fair CLR 68 46.4 46% 29.99 0.0
03 14:15 Calm 10.00 Fair CLR 68 48.2 49% 29.99 0.0
03 13:55 Calm 10.00 Fair CLR 68 48.2 49% 29.99 0.0
03 13:35 Calm 10.00 Fair CLR 68 48.2 49% 29.99 0.0
03 13:15 Calm 10.00 Fair CLR 66.2 48.2 52% 30 0.0
03 12:55 Calm 10.00 Fair CLR 68 50 53% 30 0.0
03 12:35 Calm 10.00 Fair CLR 66.2 48.2 52% 30.01 0.0
03 12:15 Calm 10.00 Fair CLR 66.2 48.2 52% 30.01 0.0
03 11:55 Calm 10.00 Fair CLR 66.2 48.2 52% 30.02 0.0
03 11:35 Calm 10.00 Fair CLR 66.2 46.4 49% 30.02 0.0
03 11:15 Calm 10.00 Fair CLR 64.4 46.4 52% 30.02 0.0
03 10:55 Calm 10.00 Fair CLR 64.4 44.6 49% 30.02 0.0
03 10:35 Calm 10.00 Fair CLR 62.6 42.8 49% 30.02 0.0
03 10:15 Calm 10.00 Fair CLR 64.4 44.6 49% 30.02 0.0
03 09:55 Calm 10.00 Fair CLR 64.4 44.6 49% 30.02 0.0
03 09:35 Calm 10.00 Fair CLR 62.6 41 45% 30.02 0.0
03 09:15 Calm 10.00 Fair CLR 62.6 41 45% 30.03 0.0
03 08:55 Calm 10.00 Fair CLR 60.8 41 48% 30.03 0.0
03 08:35 Calm 10.00 Fair CLR 59 42.8 55% 30.03 0.0
03 08:15 Calm 10.00 Fair CLR 59 44.6 59% 30.03 0.0
03 07:55 Calm 10.00 Fair CLR 57.2 46.4 67% 30.03 0.0
03 07:35 Calm 10.00 Fair CLR 57.2 46.4 67% 30.03 0.0
03 07:15 Calm 10.00 Fair CLR 57.2 46.4 67% 30.03 0.0
03 06:35 Calm 10.00 Fair CLR 55.4 46.4 72% 30.02 0.0
03 06:15 Calm 10.00 Fair CLR 55.4 46.4 72% 30.02 0.0
03 05:55 Calm 10.00 Fair CLR 55.4 48.2 77% 30.02 0.0
03 05:35 Calm 10.00 Fair CLR 55.4 46.4 72% 30.02 0.0
03 05:15 Calm 10.00 Fair CLR 55.4 46.4 72% 30.03 0.0
03 04:55 Calm 10.00 Fair CLR 55.4 46.4 72% 30.03 0.0
03 04:35 Calm 10.00 Fair CLR 55.4 46.4 72% 30.04 0.0
03 04:15 Calm 10.00 Fair CLR 55.4 46.4 72% 30.04 0.0
03 03:55 Calm 10.00 Fair CLR 55.4 46.4 72% 30.04 0.0
03 03:35 Calm 10.00 Fair CLR 55.4 48.2 77% 30.04 0.0
03 03:15 Calm 10.00 Fair CLR 53.6 48.2 82% 30.04 0.0
03 02:55 Calm 10.00 Fair CLR 55.4 48.2 77% 30.04 0.0
03 02:35 Calm 10.00 Fair CLR 55.4 48.2 77% 30.05 0.0
03 02:15 Calm 10.00 Fair CLR 53.6 48.2 82% 30.05 0.0
03 01:55 Calm 10.00 Fair CLR 53.6 48.2 82% 30.05 0.0
03 01:35 Calm 10.00 Fair CLR 53.6 48.2 82% 30.06 0.0
03 01:15 Calm 10.00 Fair CLR 53.6 48.2 82% 30.06 0.0
03 00:55 Calm 10.00 Fair CLR 53.6 48.2 82% 30.06 0.0
03 00:35 Calm 10.00 Fair CLR 55.4 48.2 77% 30.06 0.0
03 00:15 Calm 10.00 Fair CLR 55.4 48.2 77% 30.06 0.0
02 23:55 Calm 10.00 Fair CLR 57.2 48.2 72% 30.06 0.0
02 23:35 Calm 10.00 Fair CLR 57.2 48.2 72% 30.06 0.0
02 23:15 Calm 10.00 Fair CLR 57.2 48.2 72% 30.07 0.0
02 22:55 Calm 10.00 Fair CLR 57.2 48.2 72% 30.07 0.0
02 22:35 Calm 10.00 Fair CLR 57.2 48.2 72% 30.08 0.0
02 22:15 Calm 10.00 Fair CLR 57.2 50 77% 30.08 0.0
02 21:55 Calm 10.00 Fair CLR 59 50 72% 30.08 0.0
02 21:35 Calm 10.00 Fair CLR 60.8 48.2 63% 30.08 0.0
02 21:15 Calm 10.00 Fair CLR 60.8 48.2 63% 30.07 0.0
02 20:55 Calm 10.00 Fair CLR 60.8 48.2 63% 30.07 0.0
02 20:35 Calm 10.00 Fair CLR 60.8 48.2 63% 30.06 0.0
02 20:15 Calm 10.00 Fair CLR 62.6 48.2 60% 30.06 0.0
02 19:55 Calm 10.00 Fair CLR 62.6 48.2 60% 30.06 0.0
02 19:35 Calm 10.00 Fair CLR 64.4 48.2 56% 30.06 0.0
02 19:15 Calm 10.00 Fair CLR 64.4 48.2 56% 30.06 0.0
02 18:55 Calm 10.00 Fair CLR 66.2 48.2 52% 30.06 0.0
02 18:35 Calm 10.00 Fair CLR 66.2 48.2 52% 30.06 0.0
02 18:15 Calm 10.00 Fair CLR 66.2 48.2 52% 30.06 0.0
02 17:55 Calm 10.00 Fair CLR 68 48.2 49% 30.07 0.0
02 17:35 Calm 10.00 Fair CLR 68 46.4 46% 30.07 0.0
02 17:15 Calm 10.00 Fair CLR 66.2 46.4 49% 30.07 0.0
02 16:55 Calm 10.00 Fair CLR 68 46.4 46% 30.07 0.0
02 16:35 Calm 10.00 Fair CLR 68 46.4 46% 30.07 0.0
02 16:15 Calm 10.00 Fair CLR 71.6 46.4 41% 30.08 0.0
02 15:55 Calm 10.00 Fair CLR 71.6 46.4 41% 30.08 0.0
02 15:35 Calm 10.00 Fair CLR 69.8 46.4 43% 30.08 0.0
02 15:15 Calm 10.00 Fair CLR 69.8 46.4 43% 30.08 0.0
02 14:55 Calm 10.00 Fair CLR 68 46.4 46% 30.09 0.0
02 14:35 Calm 10.00 Fair CLR 68 46.4 46% 30.09 0.0
02 14:15 Calm 10.00 Fair CLR 71.6 44.6 38% 30.09 0.0
02 13:55 Calm 10.00 Fair CLR 71.6 44.6 38% 30.09 0.0
02 13:35 Calm 10.00 Fair CLR 68 44.6 43% 30.1 0.0
02 13:15 Calm 10.00 Fair CLR 69.8 42.8 38% 30.1 0.0
Date Time (pdt) Wind (mph) Vis. (mi.) Weather Sky Cond. Air Dwpt Max. Min. Relative Humidity Wind Chill (°F) Heat Index (°F) altimeter (in) sea level (mb) 1 hr 3 hr 6 hr
6 hour
Temperature (ºF) Pressure Precipitation (in)